createdAt,value
2023-01-02T00:01:04.081Z,12.35
2023-01-02T00:03:31.444Z,10.00
2023-01-02T00:05:58.327Z,10.02
2023-01-02T00:08:25.290Z,14.15
2023-01-02T00:10:53.195Z,12.00
2023-01-02T00:13:20.250Z,10.95
2023-01-02T00:15:47.170Z,8.07
2023-01-02T00:18:14.136Z,12.80
2023-01-02T00:20:41.016Z,14.00
2023-01-02T00:23:08.234Z,9.32
2023-01-02T00:25:35.292Z,11.18
2023-01-02T00:28:02.653Z,12.20
2023-01-02T00:30:35.796Z,12.48
2023-01-02T00:33:05.734Z,14.48
2023-01-02T00:35:32.773Z,13.80
2023-01-02T00:38:00.062Z,13.77
2023-01-02T00:40:27.220Z,11.77
2023-01-02T00:42:54.120Z,8.60
2023-01-02T00:45:21.037Z,14.65
2023-01-02T00:47:48.092Z,12.73
2023-01-02T00:50:15.159Z,9.43
2023-01-02T00:52:42.246Z,10.55
2023-01-02T00:55:09.512Z,12.15
2023-01-02T00:57:36.869Z,14.15
2023-01-02T01:00:05.999Z,10.20
2023-01-02T01:02:33.462Z,6.50
2023-01-02T01:05:00.360Z,10.68
2023-01-02T01:07:29.050Z,8.80
2023-01-02T01:09:56.173Z,11.38
2023-01-02T01:12:22.983Z,7.15
2023-01-02T01:14:49.853Z,10.15
2023-01-02T01:17:16.715Z,7.55
2023-01-02T01:19:43.653Z,12.27
2023-01-02T01:22:10.670Z,7.93
2023-01-02T01:24:37.734Z,9.63
2023-01-02T01:27:04.802Z,11.88
2023-01-02T01:29:31.814Z,10.23
2023-01-02T01:31:58.721Z,8.77
2023-01-02T01:34:25.574Z,8.50
2023-01-02T01:36:52.523Z,12.50
2023-01-02T01:39:19.479Z,11.25
2023-01-02T01:41:46.611Z,10.15
2023-01-02T01:44:50.070Z,7.38
2023-01-02T01:47:49.842Z,10.00
2023-01-02T01:50:32.539Z,9.68
2023-01-02T01:53:21.945Z,7.13
2023-01-02T01:56:03.987Z,15.98
2023-01-02T01:58:35.780Z,15.05
2023-01-02T02:01:03.481Z,12.07
2023-01-02T02:03:33.540Z,8.43
2023-01-02T02:06:03.179Z,13.05
2023-01-02T02:08:56.015Z,10.30
2023-01-02T02:11:23.303Z,9.27
2023-01-02T02:13:50.852Z,8.35
2023-01-02T02:16:17.981Z,7.35
2023-01-02T02:19:26.985Z,9.95
2023-01-02T02:22:12.266Z,9.27
2023-01-02T02:25:16.795Z,9.80
2023-01-02T02:28:17.479Z,8.20
2023-01-02T02:30:57.960Z,9.00
2023-01-02T02:33:39.998Z,8.30
2023-01-02T02:36:15.507Z,11.88
2023-01-02T02:38:58.494Z,9.73
2023-01-02T02:41:33.897Z,7.65
2023-01-02T02:44:07.119Z,10.52
2023-01-02T02:47:12.303Z,8.48
2023-01-02T02:49:51.161Z,7.60
2023-01-02T02:52:33.101Z,8.75
2023-01-02T02:55:13.029Z,8.82
2023-01-02T02:57:42.036Z,10.68
2023-01-02T03:00:13.535Z,7.88
2023-01-02T03:02:40.661Z,10.50
2023-01-02T03:05:12.284Z,8.52
2023-01-02T03:07:43.347Z,6.88
2023-01-02T03:10:34.431Z,5.18
2023-01-02T03:13:09.599Z,8.77
2023-01-02T03:15:49.652Z,11.25
2023-01-02T03:18:24.944Z,10.55
2023-01-02T03:21:12.406Z,8.30
2023-01-02T03:23:45.095Z,11.73
2023-01-02T03:26:15.685Z,9.25
2023-01-02T03:28:46.153Z,10.00
2023-01-02T03:31:18.126Z,8.25
2023-01-02T03:33:52.026Z,7.35
2023-01-02T03:36:24.672Z,11.40
2023-01-02T03:39:08.061Z,11.85
2023-01-02T03:41:42.156Z,5.90
2023-01-02T03:44:10.077Z,8.32
2023-01-02T03:46:40.181Z,6.90
2023-01-02T03:49:14.433Z,9.55
2023-01-02T03:51:41.919Z,5.00
2023-01-02T03:54:09.752Z,7.15
2023-01-02T03:56:49.274Z,6.30
2023-01-02T03:59:47.818Z,6.85
2023-01-02T04:02:48.005Z,5.07
2023-01-02T04:05:30.375Z,3.67
2023-01-02T04:08:06.114Z,2.63
2023-01-02T04:10:37.200Z,3.42
2023-01-02T04:13:11.441Z,4.80
2023-01-02T04:15:40.222Z,8.75
2023-01-02T04:18:15.265Z,18.42
2023-01-02T04:20:46.335Z,15.65
2023-01-02T04:23:18.070Z,16.95
2023-01-02T04:25:54.935Z,13.10
2023-01-02T04:28:31.445Z,18.15
2023-01-02T04:31:02.844Z,15.82
2023-01-02T04:33:31.577Z,15.93
2023-01-02T04:35:58.430Z,14.60
2023-01-02T04:38:25.343Z,9.38
2023-01-02T04:40:52.440Z,8.98
2023-01-02T04:43:21.827Z,8.93
2023-01-02T04:45:49.719Z,9.63
2023-01-02T04:48:17.620Z,9.05
2023-01-02T04:50:45.314Z,10.25
2023-01-02T04:53:12.423Z,10.45
2023-01-02T04:55:39.549Z,9.20
2023-01-02T04:58:07.255Z,9.60
2023-01-02T05:00:34.411Z,10.98
2023-01-02T05:03:05.308Z,11.23
2023-01-02T05:05:32.527Z,11.43
2023-01-02T05:07:59.851Z,14.73
2023-01-02T05:10:29.491Z,17.33
2023-01-02T05:12:59.199Z,15.60
2023-01-02T05:15:26.082Z,11.57
2023-01-02T05:17:52.911Z,10.50
2023-01-02T05:20:19.956Z,9.23
2023-01-02T05:23:05.311Z,10.80
2023-01-02T05:25:33.828Z,9.88
2023-01-02T05:28:05.577Z,8.90
2023-01-02T05:30:32.586Z,8.57
2023-01-02T05:32:59.685Z,10.23
2023-01-02T05:35:32.161Z,8.75
2023-01-02T05:37:59.606Z,9.90
2023-01-02T05:40:26.596Z,10.23
2023-01-02T05:42:53.385Z,8.70
2023-01-02T05:45:20.290Z,11.40
2023-01-02T05:47:47.441Z,10.15
2023-01-02T05:50:14.590Z,9.70
2023-01-02T05:52:45.626Z,9.52
2023-01-02T05:55:13.353Z,11.98
2023-01-02T05:57:40.330Z,12.65
2023-01-02T06:00:07.887Z,10.57
2023-01-02T06:02:35.021Z,11.32
2023-01-02T06:05:02.478Z,11.10
2023-01-02T06:07:29.541Z,12.77
2023-01-02T06:09:56.480Z,11.98
2023-01-02T06:12:23.447Z,12.57
2023-01-02T06:14:50.240Z,11.00
2023-01-02T06:17:17.091Z,10.85
2023-01-02T06:19:48.711Z,11.95
2023-01-02T06:22:19.056Z,12.52
2023-01-02T06:24:48.852Z,12.25
2023-01-02T06:27:15.684Z,12.25
2023-01-02T06:29:42.590Z,11.35
2023-01-02T06:32:09.669Z,11.48
2023-01-02T06:34:36.712Z,11.50
2023-01-02T06:37:09.473Z,13.23
2023-01-02T06:39:37.172Z,11.00
2023-01-02T06:42:04.071Z,10.40
2023-01-02T06:44:30.946Z,10.40
2023-01-02T06:46:57.868Z,11.70
2023-01-02T06:49:24.857Z,13.15
2023-01-02T06:51:51.610Z,8.50
2023-01-02T06:54:18.400Z,12.25
2023-01-02T06:56:45.292Z,9.30
2023-01-02T06:59:12.383Z,7.07
2023-01-02T07:01:39.444Z,6.25
2023-01-02T07:04:06.666Z,5.68
2023-01-02T07:06:34.860Z,4.90
2023-01-02T07:09:01.704Z,4.63
2023-01-02T07:11:28.557Z,5.22
2023-01-02T07:13:55.939Z,7.60
2023-01-02T07:16:23.768Z,2.80
2023-01-02T07:18:53.372Z,4.35
2023-01-02T07:21:20.855Z,2.92
2023-01-02T07:23:47.965Z,5.97
2023-01-02T07:26:15.019Z,7.45
2023-01-02T07:28:43.855Z,4.40
2023-01-02T07:31:16.065Z,5.15
2023-01-02T07:33:43.534Z,4.88
2023-01-02T07:36:14.512Z,4.50
2023-01-02T07:38:41.466Z,4.07
2023-01-02T07:41:16.870Z,4.85
2023-01-02T07:43:45.444Z,6.18
2023-01-02T07:46:14.299Z,4.07
2023-01-02T07:48:41.322Z,6.80
2023-01-02T07:51:09.143Z,4.10
2023-01-02T07:53:36.420Z,5.95
2023-01-02T07:56:03.396Z,5.22
2023-01-02T07:58:30.999Z,4.13
2023-01-02T08:01:05.129Z,5.75
2023-01-02T08:03:33.858Z,4.53
2023-01-02T08:06:12.673Z,3.63
2023-01-02T08:08:40.066Z,4.68
2023-01-02T08:11:08.304Z,6.45
2023-01-02T08:13:35.576Z,3.58
2023-01-02T08:16:14.435Z,7.20
2023-01-02T08:18:41.377Z,7.20
2023-01-02T08:21:08.399Z,8.23
2023-01-02T08:23:35.865Z,6.97
2023-01-02T08:26:05.754Z,5.97
2023-01-02T08:28:34.103Z,6.93
2023-01-02T08:31:01.579Z,5.18
2023-01-02T08:33:28.850Z,8.40
2023-01-02T08:35:56.622Z,6.15
2023-01-02T08:38:25.402Z,10.25
2023-01-02T08:40:52.277Z,5.60
2023-01-02T08:43:19.272Z,5.47
2023-01-02T08:45:46.408Z,5.00
2023-01-02T08:48:20.585Z,3.97
2023-01-02T08:50:51.592Z,3.75
2023-01-02T08:53:18.818Z,6.70
2023-01-02T08:55:46.009Z,4.85
2023-01-02T08:58:13.324Z,4.88
2023-01-02T09:00:40.581Z,4.88
2023-01-02T09:03:07.558Z,6.72
2023-01-02T09:05:34.952Z,8.32
2023-01-02T09:08:02.540Z,7.57
2023-01-02T09:10:29.344Z,6.35
2023-01-02T09:12:56.158Z,6.90
2023-01-02T09:15:23.012Z,4.32
2023-01-02T09:17:49.866Z,8.10
2023-01-02T09:20:16.845Z,5.55
2023-01-02T09:22:44.676Z,5.38
2023-01-02T09:25:11.584Z,5.05
2023-01-02T09:27:38.562Z,5.38
2023-01-02T09:30:05.965Z,5.78
2023-01-02T09:32:32.889Z,4.25
2023-01-02T09:34:59.781Z,5.18
2023-01-02T09:37:27.854Z,4.97
2023-01-02T09:39:54.634Z,4.50
2023-01-02T09:42:21.588Z,4.50
2023-01-02T09:44:54.194Z,4.25
2023-01-02T09:47:24.960Z,2.80
2023-01-02T09:50:00.587Z,2.13
2023-01-02T09:52:32.331Z,2.97
2023-01-02T09:55:00.162Z,3.47
2023-01-02T09:57:26.952Z,3.38
2023-01-02T10:00:12.546Z,4.30
2023-01-02T10:03:18.430Z,3.15
2023-01-02T10:05:53.133Z,3.53
2023-01-02T10:08:29.547Z,3.28
2023-01-02T10:11:18.807Z,5.70
2023-01-02T10:14:20.740Z,4.07
2023-01-02T10:16:59.485Z,4.40
2023-01-02T10:19:45.631Z,4.38
2023-01-02T10:22:20.600Z,3.42
2023-01-02T10:24:56.256Z,2.30
2023-01-02T10:27:30.045Z,3.85
2023-01-02T10:30:22.965Z,4.82
2023-01-02T10:33:09.652Z,5.45
2023-01-02T10:35:50.922Z,6.60
2023-01-02T10:38:19.943Z,4.55
2023-01-02T10:40:48.925Z,4.00
2023-01-02T10:43:16.804Z,4.07
2023-01-02T10:45:44.237Z,4.65
2023-01-02T10:48:11.661Z,9.70
2023-01-02T10:50:48.009Z,6.43
2023-01-02T10:53:33.299Z,4.90
2023-01-02T10:56:20.654Z,4.88
2023-01-02T10:58:50.024Z,4.55
2023-01-02T11:01:22.754Z,8.68
2023-01-02T11:04:10.807Z,3.85
2023-01-02T11:06:51.321Z,5.05
2023-01-02T11:09:24.123Z,3.95
2023-01-02T11:11:53.868Z,7.32
2023-01-02T11:14:32.237Z,7.60
2023-01-02T11:17:10.167Z,6.50
2023-01-02T11:19:46.465Z,3.97
2023-01-02T11:22:16.602Z,4.95
2023-01-02T11:24:59.326Z,5.88
2023-01-02T11:27:41.448Z,4.85
2023-01-02T11:30:22.643Z,2.88
2023-01-02T11:33:03.176Z,1.95
2023-01-02T11:35:46.129Z,1.00
2023-01-02T11:38:28.979Z,1.65
2023-01-02T11:41:00.946Z,3.13
2023-01-02T11:43:52.078Z,1.45
2023-01-02T11:46:29.785Z,2.63
2023-01-02T11:49:11.734Z,2.22
2023-01-02T11:51:41.080Z,2.20
2023-01-02T11:54:16.009Z,4.75
2023-01-02T11:56:47.943Z,2.58
2023-01-02T11:59:38.954Z,1.83
2023-01-02T12:02:20.898Z,3.50
2023-01-02T12:04:47.802Z,2.20
2023-01-02T12:07:42.403Z,1.92
2023-01-02T12:10:09.345Z,2.92
2023-01-02T12:13:00.352Z,0.70
2023-01-02T12:16:01.221Z,1.02
2023-01-02T12:18:55.270Z,5.20
2023-01-02T12:21:30.516Z,4.45
2023-01-02T12:24:15.727Z,1.80
2023-01-02T12:27:25.406Z,0.57
2023-01-02T12:30:09.869Z,0.40
2023-01-02T12:32:58.927Z,1.95
2023-01-02T12:35:55.198Z,1.52
2023-01-02T12:39:02.803Z,2.38
2023-01-02T12:42:09.648Z,2.75
2023-01-02T12:44:53.987Z,1.90
2023-01-02T12:47:46.990Z,1.48
2023-01-02T12:50:28.771Z,1.77
2023-01-02T12:53:23.747Z,1.48
2023-01-02T12:56:03.126Z,2.50
2023-01-02T12:58:51.163Z,0.90
2023-01-02T13:01:21.921Z,0.88
2023-01-02T13:04:03.419Z,0.95
2023-01-02T13:06:47.231Z,2.53
2023-01-02T13:09:35.735Z,2.03
2023-01-02T13:12:22.276Z,2.50
2023-01-02T13:15:07.449Z,1.90
2023-01-02T13:17:37.850Z,2.13
2023-01-02T13:20:20.407Z,2.65
2023-01-02T13:23:24.991Z,3.08
2023-01-02T13:25:59.636Z,3.80
2023-01-02T13:28:26.929Z,6.57
2023-01-02T13:33:54.806Z,3.80
2023-01-02T13:36:46.140Z,4.57
2023-01-02T13:39:20.691Z,3.05
2023-01-02T13:42:10.684Z,3.47
2023-01-02T13:44:40.577Z,6.63
2023-01-02T13:47:24.499Z,4.07
2023-01-02T13:50:18.077Z,3.78
2023-01-02T13:53:01.745Z,4.18
2023-01-02T13:55:32.609Z,4.85
2023-01-02T13:58:18.018Z,5.18
2023-01-02T14:00:54.042Z,5.53
2023-01-02T14:03:25.213Z,9.95
2023-01-02T14:06:01.095Z,5.40
2023-01-02T14:08:28.136Z,5.57
2023-01-02T14:11:07.993Z,4.07
2023-01-02T14:13:45.007Z,5.05
2023-01-02T14:16:25.178Z,9.38
2023-01-02T14:19:15.565Z,7.40
2023-01-02T14:21:53.412Z,8.13
2023-01-02T14:24:31.050Z,10.13
2023-01-02T14:27:04.635Z,6.95
2023-01-02T14:29:39.474Z,7.47
2023-01-02T14:32:18.863Z,7.32
2023-01-02T14:34:48.362Z,6.60
2023-01-02T14:37:33.201Z,7.28
2023-01-02T14:40:35.575Z,10.20
2023-01-02T14:43:27.317Z,9.00
2023-01-02T14:46:00.696Z,6.32
2023-01-02T14:48:50.346Z,5.28
2023-01-02T14:51:36.772Z,9.32
2023-01-02T14:54:20.929Z,4.32
2023-01-02T14:56:55.189Z,7.28
2023-01-02T14:59:40.007Z,6.68
2023-01-02T15:02:13.996Z,3.92
2023-01-02T15:04:50.971Z,5.63
2023-01-02T15:07:29.922Z,4.50
2023-01-02T15:09:59.655Z,3.88
2023-01-02T15:12:48.332Z,3.63
2023-01-02T15:15:17.850Z,7.93
2023-01-02T15:17:47.706Z,0.88
2023-01-02T15:20:23.800Z,3.50
2023-01-02T15:22:55.413Z,1.15
2023-01-02T15:25:41.788Z,1.92
2023-01-02T15:28:27.567Z,2.08
2023-01-02T15:31:15.059Z,1.23
2023-01-02T15:33:42.301Z,2.53
2023-01-02T15:36:16.207Z,2.15
2023-01-02T15:38:44.253Z,4.05
2023-01-02T15:41:20.752Z,3.05
2023-01-02T15:44:07.364Z,3.75
2023-01-02T15:46:34.841Z,0.50
2023-01-02T15:49:04.224Z,4.00
2023-01-02T15:51:40.934Z,3.25
2023-01-02T15:54:13.245Z,4.93
2023-01-02T15:56:41.084Z,4.50
2023-01-02T15:59:34.839Z,3.30
2023-01-02T16:02:03.222Z,3.72
2023-01-02T16:04:33.697Z,1.73
2023-01-02T16:07:22.121Z,5.68
2023-01-02T16:09:54.984Z,3.43
2023-01-02T16:12:23.501Z,5.13
2023-01-02T16:14:55.643Z,6.60
2023-01-02T16:17:27.308Z,6.00
2023-01-02T16:19:58.525Z,5.70
2023-01-02T16:22:26.079Z,6.85
2023-01-02T16:25:13.631Z,5.75
2023-01-02T16:27:52.787Z,5.97
2023-01-02T16:30:25.878Z,5.47
2023-01-02T16:32:53.213Z,5.47
2023-01-02T16:35:30.020Z,8.65
2023-01-02T16:38:21.907Z,7.10
2023-01-02T16:40:59.902Z,11.02
2023-01-02T16:43:30.573Z,6.78
2023-01-02T16:45:58.788Z,9.05
2023-01-02T16:48:28.374Z,6.25
2023-01-02T16:50:57.165Z,7.53
2023-01-02T16:53:30.918Z,9.55
2023-01-02T16:55:59.692Z,7.57
2023-01-02T16:58:26.662Z,9.55
2023-01-02T17:00:55.588Z,9.13
2023-01-02T17:03:25.946Z,8.93
2023-01-02T17:06:00.941Z,10.48
2023-01-02T17:08:32.844Z,10.60
2023-01-02T17:11:00.919Z,9.23
2023-01-02T17:13:28.854Z,15.10
2023-01-02T17:15:56.473Z,7.85
2023-01-02T17:18:23.817Z,10.95
2023-01-02T17:20:51.530Z,12.50
2023-01-02T17:23:21.445Z,15.65
2023-01-02T17:25:49.582Z,9.10
2023-01-02T17:28:16.482Z,15.85
2023-01-02T17:30:45.415Z,15.32
2023-01-02T17:33:12.807Z,13.52
2023-01-02T17:35:39.637Z,8.65
2023-01-02T17:38:07.375Z,14.18
2023-01-02T17:40:34.339Z,12.25
2023-01-02T17:43:01.253Z,11.82
2023-01-02T17:45:28.294Z,14.27
2023-01-02T17:48:03.557Z,12.63
2023-01-02T17:50:32.891Z,14.00
2023-01-02T17:52:59.990Z,11.13
2023-01-02T17:55:26.841Z,10.35
2023-01-02T17:57:53.868Z,10.75
2023-01-02T18:00:23.595Z,14.55
2023-01-02T18:02:52.620Z,8.63
2023-01-02T18:05:20.803Z,10.98
2023-01-02T18:07:47.697Z,10.65
2023-01-02T18:10:19.423Z,11.52
2023-01-02T18:12:49.091Z,14.18
2023-01-02T18:15:17.400Z,15.05
2023-01-02T18:17:44.448Z,12.05
2023-01-02T18:20:17.597Z,16.90
2023-01-02T18:22:49.661Z,11.75
2023-01-02T18:25:27.671Z,14.35
2023-01-02T18:28:21.358Z,17.20
2023-01-02T18:30:59.991Z,12.82
2023-01-02T18:33:28.163Z,11.77
2023-01-02T18:36:06.306Z,13.10
2023-01-02T18:38:37.892Z,12.05
2023-01-02T18:41:24.745Z,14.25
2023-01-02T18:43:56.510Z,15.52
2023-01-02T18:47:03.298Z,13.73
2023-01-02T18:49:27.351Z,13.82
2023-01-02T18:52:07.197Z,14.32
2023-01-02T18:54:34.738Z,15.48
2023-01-02T18:57:19.607Z,14.10
2023-01-02T18:59:48.603Z,18.83
2023-01-02T19:02:29.886Z,16.92
2023-01-02T19:04:58.081Z,16.52
2023-01-02T19:07:32.401Z,12.98
2023-01-02T19:10:14.663Z,12.60
2023-01-02T19:13:07.666Z,16.65
2023-01-02T19:15:37.006Z,15.45
2023-01-02T19:18:27.443Z,15.13
2023-01-02T19:21:23.331Z,16.40
2023-01-02T19:23:56.624Z,17.58
2023-01-02T19:26:51.007Z,13.93
2023-01-02T19:29:22.112Z,21.98
2023-01-02T19:32:02.421Z,12.02
2023-01-02T19:34:52.753Z,13.90
2023-01-02T19:37:40.605Z,14.38
2023-01-02T19:40:20.144Z,14.45
2023-01-02T19:42:53.690Z,11.77
2023-01-02T19:45:28.006Z,12.95
2023-01-02T19:47:55.266Z,14.27
2023-01-02T19:50:24.740Z,12.88
2023-01-02T19:52:51.929Z,15.30
2023-01-02T19:55:19.420Z,16.38
2023-01-02T19:57:46.926Z,17.40
2023-01-02T20:00:16.046Z,13.65
2023-01-02T20:02:45.651Z,13.27
2023-01-02T20:05:20.731Z,12.05
2023-01-02T20:07:49.481Z,14.10
2023-01-02T20:10:16.385Z,15.55
2023-01-02T20:12:43.363Z,20.45
2023-01-02T20:15:17.578Z,20.13
2023-01-02T20:17:45.691Z,14.48
2023-01-02T20:20:21.440Z,14.50
2023-01-02T20:22:51.328Z,14.10
2023-01-02T20:25:21.209Z,12.35
2023-01-02T20:27:47.996Z,11.13
2023-01-02T20:30:20.236Z,12.55
2023-01-02T20:32:50.633Z,10.02
2023-01-02T20:35:17.670Z,11.43
2023-01-02T20:37:44.812Z,11.63
2023-01-02T20:40:12.141Z,26.20
2023-01-02T20:42:39.141Z,14.07
2023-01-02T20:45:06.712Z,13.50
2023-01-02T20:47:35.491Z,11.55
2023-01-02T20:50:03.239Z,11.95
2023-01-02T20:52:30.116Z,13.18
2023-01-02T20:54:57.307Z,17.77
2023-01-02T20:57:24.548Z,12.82
2023-01-02T20:59:51.581Z,19.55
2023-01-02T21:02:19.734Z,16.25
2023-01-02T21:04:46.862Z,15.27
2023-01-02T21:07:14.007Z,15.60
2023-01-02T21:09:40.998Z,11.20
2023-01-02T21:12:28.102Z,17.05
2023-01-02T21:14:55.214Z,13.65
2023-01-02T21:17:22.051Z,21.63
2023-01-02T21:19:49.080Z,20.05
2023-01-02T21:22:16.220Z,16.20
2023-01-02T21:24:43.207Z,15.10
2023-01-02T21:27:13.241Z,19.60
2023-01-02T21:29:40.785Z,19.45
2023-01-02T21:32:07.766Z,20.52
2023-01-02T21:34:34.613Z,16.35
2023-01-02T21:37:01.602Z,16.58
2023-01-02T21:39:31.869Z,18.50
2023-01-02T21:42:17.042Z,18.85
2023-01-02T21:44:47.109Z,22.70
2023-01-02T21:47:15.526Z,21.17
2023-01-02T21:49:42.663Z,12.70
2023-01-02T21:52:09.826Z,22.63
2023-01-02T21:54:39.221Z,11.43
2023-01-02T21:57:06.157Z,18.50
2023-01-02T21:59:33.678Z,16.30
2023-01-02T22:02:03.919Z,14.70
2023-01-02T22:04:31.062Z,15.50
2023-01-02T22:07:31.056Z,17.08
2023-01-02T22:09:46.259Z,17.05
2023-01-02T22:12:13.251Z,16.42
2023-01-02T22:14:40.086Z,21.80
2023-01-02T22:17:09.568Z,17.85
2023-01-02T22:19:37.627Z,15.82
2023-01-02T22:22:05.204Z,26.48
2023-01-02T22:24:32.237Z,16.13
2023-01-02T22:27:03.817Z,19.77
2023-01-02T22:30:00.462Z,17.25
2023-01-02T22:32:19.328Z,21.48
2023-01-02T22:34:46.354Z,18.42
2023-01-02T22:37:22.308Z,21.83
2023-01-02T22:39:49.966Z,27.45
2023-01-02T22:43:03.788Z,26.20
2023-01-02T22:45:46.603Z,26.85
2023-01-02T22:48:35.239Z,16.98
2023-01-02T22:51:03.741Z,14.60
2023-01-02T22:53:35.413Z,15.82
2023-01-02T22:56:10.941Z,16.80
2023-01-02T22:58:37.974Z,11.02
2023-01-02T23:01:13.432Z,20.35
2023-01-02T23:03:43.003Z,12.73
2023-01-02T23:06:10.293Z,19.77
2023-01-02T23:08:40.060Z,19.17
2023-01-02T23:11:08.116Z,14.23
2023-01-02T23:13:36.085Z,12.93
2023-01-02T23:16:36.014Z,11.85
2023-01-02T23:19:15.376Z,13.50
2023-01-02T23:21:44.466Z,11.10
2023-01-02T23:24:13.392Z,17.75
2023-01-02T23:26:53.618Z,13.27
2023-01-02T23:29:22.030Z,17.63
2023-01-02T23:31:50.830Z,15.70
2023-01-02T23:34:20.301Z,20.30
2023-01-02T23:36:47.456Z,11.00
2023-01-02T23:39:17.284Z,19.08
2023-01-02T23:41:45.320Z,19.17
2023-01-02T23:44:13.288Z,14.13
2023-01-02T23:46:41.056Z,13.48
2023-01-02T23:49:09.265Z,10.20
2023-01-02T23:51:37.531Z,12.27
2023-01-02T23:54:05.315Z,14.30
2023-01-02T23:56:34.992Z,15.10
2023-01-02T23:59:03.746Z,13.18
